Time;durP1;ratioP1;P1;durP2;ratioP2;P2;SDS_P1;SDS_P2;PMS_P1;PMS_P2;Temp;Humidity;BMP_temperature;BMP_pressure;BME280_temperature;BME280_humidity;BME280_pressure;Samples;Min_cycle;Max_cycle;Signal;HPM_P1;HPM_P2
2021/01/19 00:00:13;;;;;;;2.70;2.50;;;6.50;99.90;;;;;;5012915;28;20189;-82
2021/01/19 00:02:39;;;;;;;2.07;1.70;;;6.40;99.90;;;;;;5013016;28;20180;-81
2021/01/19 00:05:06;;;;;;;1.70;1.60;;;6.40;99.90;;;;;;5010361;28;20197;-82
2021/01/19 00:07:31;;;;;;;2.03;1.70;;;6.40;99.90;;;;;;5025036;28;20168;-81
2021/01/19 00:09:57;;;;;;;2.27;1.90;;;6.30;99.90;;;;;;5022395;28;20172;-81
2021/01/19 00:12:22;;;;;;;2.47;1.57;;;6.30;99.90;;;;;;5034036;28;20168;-81
2021/01/19 00:14:48;;;;;;;2.17;1.73;;;6.30;99.90;;;;;;5020687;28;20201;-81
2021/01/19 00:17:14;;;;;;;1.87;1.50;;;6.30;99.90;;;;;;5014006;28;20169;-81
2021/01/19 00:19:39;;;;;;;1.77;1.27;;;6.30;99.90;;;;;;5012713;28;20300;-82
2021/01/19 00:22:05;;;;;;;1.87;1.70;;;6.30;99.90;;;;;;5029169;28;20169;-82
2021/01/19 00:24:30;;;;;;;2.13;1.60;;;6.30;99.90;;;;;;5013287;28;20745;-81
2021/01/19 00:26:56;;;;;;;4.33;2.07;;;6.30;99.90;;;;;;5020256;28;20213;-81
2021/01/19 00:29:22;;;;;;;2.00;1.47;;;6.20;99.90;;;;;;5014340;28;20532;-81
2021/01/19 00:31:47;;;;;;;2.57;1.97;;;6.20;99.90;;;;;;5032274;28;20191;-81
2021/01/19 00:34:13;;;;;;;2.13;2.03;;;6.20;99.90;;;;;;5022249;28;20231;-81
2021/01/19 00:36:38;;;;;;;2.20;2.00;;;6.20;99.90;;;;;;4993073;28;20184;-81
2021/01/19 00:39:04;;;;;;;2.53;1.97;;;6.20;99.90;;;;;;4994218;28;20530;-81
2021/01/19 00:41:30;;;;;;;2.20;1.70;;;6.20;99.90;;;;;;4994192;28;20208;-81
2021/01/19 00:43:56;;;;;;;4.17;2.87;;;6.20;99.90;;;;;;4994243;28;20589;-81
2021/01/19 00:46:21;;;;;;;2.07;1.87;;;6.30;99.90;;;;;;5003399;28;20177;-82
2021/01/19 00:48:47;;;;;;;3.10;2.40;;;6.20;99.90;;;;;;5029597;28;20176;-82
2021/01/19 00:51:12;;;;;;;2.67;2.47;;;6.30;99.90;;;;;;5026977;28;20172;-82
2021/01/19 00:53:38;;;;;;;3.13;2.30;;;6.30;99.90;;;;;;5012429;28;20203;-82
2021/01/19 00:56:04;;;;;;;3.33;2.00;;;6.30;99.90;;;;;;5028758;28;20644;-82
2021/01/19 00:58:29;;;;;;;2.10;1.63;;;6.30;99.90;;;;;;5022431;28;20525;-81
2021/01/19 01:00:55;;;;;;;1.90;1.70;;;6.30;99.90;;;;;;5033429;28;20179;-82
2021/01/19 01:03:20;;;;;;;1.40;1.30;;;6.30;99.90;;;;;;5033581;28;20176;-82
2021/01/19 01:05:47;;;;;;;3.77;2.50;;;6.30;99.90;;;;;;5035755;28;20203;-82
2021/01/19 01:08:12;;;;;;;2.60;1.83;;;6.30;99.90;;;;;;5031766;28;20547;-81
2021/01/19 01:10:38;;;;;;;3.10;2.00;;;6.30;99.90;;;;;;5027356;28;20180;-81
2021/01/19 01:13:03;;;;;;;1.70;1.60;;;6.30;99.90;;;;;;5018762;28;20177;-81
2021/01/19 01:15:35;;;;;;;1.73;1.50;;;6.30;99.90;;;;;;5016990;28;20276;-81
2021/01/19 01:18:00;;;;;;;1.93;1.63;;;6.30;99.90;;;;;;5033701;28;20295;-81
2021/01/19 01:20:26;;;;;;;2.27;1.43;;;6.30;99.90;;;;;;5035451;28;20807;-81
2021/01/19 01:22:52;;;;;;;2.30;1.67;;;6.20;99.90;;;;;;5035389;28;20176;-82
2021/01/19 01:25:18;;;;;;;2.57;2.37;;;6.20;99.90;;;;;;5025384;28;20243;-82
2021/01/19 01:27:45;;;;;;;1.57;1.33;;;6.20;99.90;;;;;;5017019;28;20169;-81
2021/01/19 01:30:13;;;;;;;2.27;1.90;;;6.20;99.90;;;;;;5022970;28;20180;-81
2021/01/19 01:32:42;;;;;;;3.93;1.63;;;6.20;99.90;;;;;;5015420;28;20176;-81
2021/01/19 01:35:08;;;;;;;1.60;1.40;;;6.20;99.90;;;;;;4995835;28;20255;-81
2021/01/19 01:37:34;;;;;;;2.67;2.10;;;6.20;99.90;;;;;;4995704;28;20178;-81
2021/01/19 01:40:00;;;;;;;2.30;1.60;;;6.20;99.90;;;;;;4995544;28;20219;-82
2021/01/19 01:42:25;;;;;;;3.13;2.00;;;6.20;99.90;;;;;;5021850;28;20187;-81
2021/01/19 01:44:54;;;;;;;1.73;1.63;;;6.20;99.90;;;;;;5036234;28;20270;-81
2021/01/19 01:47:26;;;;;;;2.60;1.90;;;6.20;99.90;;;;;;5036240;28;20691;-81
2021/01/19 01:49:53;;;;;;;1.63;1.40;;;6.20;99.90;;;;;;5033680;28;20265;-81
2021/01/19 01:52:21;;;;;;;5.07;1.93;;;6.20;99.90;;;;;;5014368;28;20183;-81
2021/01/19 01:54:51;;;;;;;6.40;0.93;;;6.20;99.90;;;;;;5032313;28;20616;-81
2021/01/19 01:57:20;;;;;;;0.93;0.93;;;6.20;99.90;;;;;;5030260;28;20200;-81
2021/01/19 01:59:50;;;;;;;1.33;1.23;;;6.30;99.90;;;;;;5014990;28;20176;-81
2021/01/19 02:02:16;;;;;;;1.77;1.47;;;6.20;99.90;;;;;;5014970;28;20231;-81
2021/01/19 02:04:42;;;;;;;1.37;1.03;;;6.20;99.90;;;;;;5014807;28;20208;-81
2021/01/19 02:07:23;;;;;;;3.30;1.77;;;6.20;99.90;;;;;;5016210;28;20172;-81
2021/01/19 02:09:57;;;;;;;0.73;0.70;;;6.20;99.90;;;;;;5014888;28;20169;-82
2021/01/19 02:12:31;;;;;;;2.30;1.03;;;6.30;99.90;;;;;;4996501;28;20201;-82
2021/01/19 02:15:05;;;;;;;2.10;1.63;;;6.20;99.90;;;;;;5033715;28;20303;-81
2021/01/19 02:17:38;;;;;;;1.83;1.20;;;6.30;99.90;;;;;;5020788;28;20179;-82
2021/01/19 02:20:13;;;;;;;1.50;0.73;;;6.20;99.90;;;;;;5015287;28;20516;-82
2021/01/19 02:23:04;;;;;;;2.10;1.73;;;6.20;99.90;;;;;;5014668;28;20171;-81
2021/01/19 02:25:51;;;;;;;1.57;1.00;;;6.20;99.90;;;;;;5020976;28;20287;-81
2021/01/19 02:28:38;;;;;;;1.10;1.10;;;6.20;99.90;;;;;;5034446;28;20172;-81
2021/01/19 02:31:17;;;;;;;1.30;0.90;;;6.30;99.90;;;;;;5034296;28;20174;-81
2021/01/19 02:34:06;;;;;;;0.90;0.90;;;6.30;99.90;;;;;;5016179;28;20569;-81
2021/01/19 02:36:46;;;;;;;0.60;0.60;;;6.20;99.90;;;;;;5023780;28;20173;-81
2021/01/19 02:39:17;;;;;;;1.17;0.43;;;6.30;99.90;;;;;;5033540;28;20215;-81
2021/01/19 02:41:44;;;;;;;1.03;1.03;;;6.30;99.90;;;;;;5035449;28;20160;-81
2021/01/19 02:44:22;;;;;;;0.57;0.57;;;6.20;99.90;;;;;;5033953;28;20226;-81
2021/01/19 02:46:54;;;;;;;0.73;0.50;;;6.20;99.90;;;;;;5035174;28;20168;-81
2021/01/19 02:49:21;;;;;;;1.37;0.50;;;6.30;99.90;;;;;;5034109;28;20172;-81
2021/01/19 02:51:49;;;;;;;0.50;0.50;;;6.30;99.90;;;;;;5033892;28;20314;-81
2021/01/19 02:54:16;;;;;;;5.90;0.37;;;6.30;99.90;;;;;;5026181;28;20603;-81
2021/01/19 02:57:09;;;;;;;0.27;0.27;;;6.30;99.90;;;;;;5030729;28;20675;-81
2021/01/19 02:59:43;;;;;;;5.53;1.27;;;6.30;99.90;;;;;;4994504;28;20166;-81
2021/01/19 03:02:19;;;;;;;4.50;0.70;;;6.30;99.90;;;;;;5002582;28;20694;-81
2021/01/19 03:04:48;;;;;;;0.87;0.60;;;6.20;99.90;;;;;;5012781;28;20200;-81
2021/01/19 03:07:15;;;;;;;0.70;0.70;;;6.20;99.90;;;;;;5021954;28;20211;-81
2021/01/19 03:09:42;;;;;;;0.30;0.30;;;6.20;99.90;;;;;;5031955;28;20180;-82
2021/01/19 03:12:17;;;;;;;0.60;0.47;;;6.30;99.90;;;;;;5017054;28;20222;-81
2021/01/19 03:14:43;;;;;;;0.30;0.30;;;6.20;99.90;;;;;;5012061;28;20203;-81
2021/01/19 03:17:10;;;;;;;0.67;0.67;;;6.20;99.90;;;;;;4994732;28;20189;-81
2021/01/19 03:19:41;;;;;;;0.47;0.47;;;6.30;99.90;;;;;;4993836;28;20179;-81
2021/01/19 03:22:08;;;;;;;1.80;0.77;;;6.20;99.90;;;;;;4998679;28;20257;-81
2021/01/19 03:24:34;;;;;;;0.20;0.20;;;6.20;99.90;;;;;;5029808;28;20228;-81
2021/01/19 03:26:59;;;;;;;1.73;0.70;;;6.20;99.90;;;;;;5013945;28;20647;-81
2021/01/19 03:29:25;;;;;;;4.57;0.70;;;6.20;99.90;;;;;;5021861;28;20214;-81
2021/01/19 03:31:51;;;;;;;2.40;0.60;;;6.20;99.90;;;;;;5013450;28;20184;-81
2021/01/19 03:34:17;;;;;;;0.10;0.10;;;6.10;99.90;;;;;;5013214;28;20211;-81
2021/01/19 03:36:42;;;;;;;0.60;0.50;;;6.20;99.90;;;;;;5012032;28;20192;-81
2021/01/19 03:39:08;;;;;;;0.40;0.30;;;6.20;99.90;;;;;;5018894;28;20184;-81
2021/01/19 03:41:34;;;;;;;0.97;0.57;;;6.20;99.90;;;;;;5014765;28;20197;-81
2021/01/19 03:43:59;;;;;;;2.20;0.40;;;6.20;99.90;;;;;;5018057;28;20211;-81
2021/01/19 03:46:26;;;;;;;1.50;0.50;;;6.20;99.90;;;;;;5032831;28;20584;-81
2021/01/19 03:48:52;;;;;;;0.30;0.30;;;6.20;99.90;;;;;;5032767;28;20577;-81
2021/01/19 03:51:18;;;;;;;2.00;1.13;;;6.20;99.90;;;;;;5032892;28;20172;-81
2021/01/19 03:53:44;;;;;;;0.60;0.40;;;6.20;99.90;;;;;;5029954;28;20192;-80
2021/01/19 03:56:09;;;;;;;0.20;0.20;;;6.20;99.90;;;;;;5012296;28;20192;-81
2021/01/19 03:58:35;;;;;;;0.67;0.67;;;6.10;99.90;;;;;;5032202;28;20290;-81
2021/01/19 04:01:00;;;;;;;0.40;0.40;;;6.20;99.90;;;;;;5032670;28;20180;-81
2021/01/19 04:03:26;;;;;;;0.40;0.40;;;6.20;99.90;;;;;;5032508;28;20287;-81
2021/01/19 04:05:51;;;;;;;0.40;0.27;;;6.20;99.90;;;;;;5033737;28;20195;-81
2021/01/19 04:08:17;;;;;;;2.73;0.40;;;6.20;99.90;;;;;;5016760;28;20181;-81
2021/01/19 04:10:48;;;;;;;8.87;0.83;;;6.20;99.90;;;;;;5023477;28;20184;-81
2021/01/19 04:13:15;;;;;;;0.50;0.50;;;6.20;99.90;;;;;;5032470;28;20685;-81
2021/01/19 04:15:41;;;;;;;0.60;0.60;;;6.20;99.90;;;;;;5032358;28;20533;-81
2021/01/19 04:18:06;;;;;;;0.83;0.83;;;6.10;99.90;;;;;;5023845;28;20196;-81
2021/01/19 04:20:32;;;;;;;1.00;0.90;;;6.10;99.90;;;;;;5009358;28;20209;-81
2021/01/19 04:22:58;;;;;;;0.90;0.87;;;6.20;99.90;;;;;;5009964;28;20605;-81
2021/01/19 04:25:23;;;;;;;0.33;0.30;;;6.10;99.90;;;;;;5012549;28;20251;-81
2021/01/19 04:27:49;;;;;;;0.90;0.70;;;6.20;99.90;;;;;;5013813;28;20157;-81
2021/01/19 04:30:15;;;;;;;0.77;0.47;;;6.20;99.90;;;;;;5009233;28;20188;-81
2021/01/19 04:32:40;;;;;;;0.70;0.70;;;6.20;99.90;;;;;;4992963;28;20240;-81
2021/01/19 04:35:06;;;;;;;1.37;0.43;;;6.10;99.90;;;;;;4992760;28;20561;-81
2021/01/19 04:37:32;;;;;;;0.90;0.50;;;6.10;99.90;;;;;;4994818;28;20200;-81
2021/01/19 04:39:57;;;;;;;1.77;0.87;;;6.10;99.90;;;;;;4996778;28;20273;-80
2021/01/19 04:42:23;;;;;;;0.90;0.70;;;6.10;99.90;;;;;;5024287;28;20209;-81
2021/01/19 04:44:50;;;;;;;0.60;0.60;;;6.00;99.90;;;;;;4997920;28;20202;-81
2021/01/19 04:47:16;;;;;;;0.97;0.80;;;6.00;99.90;;;;;;4998023;28;20236;-81
2021/01/19 04:49:44;;;;;;;1.00;0.70;;;6.00;99.90;;;;;;4997938;28;20166;-81
2021/01/19 04:52:14;;;;;;;2.90;1.03;;;6.00;99.90;;;;;;5002667;28;20177;-81
2021/01/19 04:55:08;;;;;;;0.93;0.77;;;6.00;99.90;;;;;;5012865;28;20689;-81
2021/01/19 04:57:36;;;;;;;0.53;0.53;;;6.00;99.90;;;;;;4997844;28;20166;-81
2021/01/19 05:00:10;;;;;;;0.50;0.50;;;5.90;99.90;;;;;;5004662;28;20181;-81
2021/01/19 05:03:17;;;;;;;0.37;0.37;;;5.90;99.90;;;;;;5012068;28;20177;-81
2021/01/19 05:06:14;;;;;;;1.50;0.93;;;5.80;99.90;;;;;;5012502;28;20284;-81
2021/01/19 05:08:43;;;;;;;18.40;1.17;;;5.80;99.90;;;;;;4996419;28;20173;-81
2021/01/19 05:11:21;;;;;;;1.50;0.70;;;5.70;99.90;;;;;;4999035;28;20530;-81
2021/01/19 05:13:58;;;;;;;0.40;0.40;;;5.70;99.90;;;;;;5015483;28;20199;-81
2021/01/19 05:16:33;;;;;;;0.43;0.43;;;5.70;99.90;;;;;;5017336;28;20184;-81
2021/01/19 05:19:01;;;;;;;1.10;0.90;;;5.70;99.90;;;;;;4996388;28;20177;-82
2021/01/19 05:21:27;;;;;;;0.33;0.33;;;5.70;99.90;;;;;;4996233;28;20169;-82
2021/01/19 05:23:54;;;;;;;6.30;0.73;;;5.70;99.90;;;;;;5003982;28;20654;-82
2021/01/19 05:26:20;;;;;;;0.93;0.60;;;5.60;99.90;;;;;;5012444;28;20209;-82
2021/01/19 05:28:51;;;;;;;1.23;0.73;;;5.60;99.90;;;;;;4999011;28;20522;-82
2021/01/19 05:31:22;;;;;;;3.03;0.83;;;5.60;99.90;;;;;;4997413;28;20244;-82
2021/01/19 05:33:54;;;;;;;1.43;1.13;;;5.50;99.90;;;;;;5016802;28;20268;-82
2021/01/19 05:36:21;;;;;;;0.50;0.50;;;5.50;99.90;;;;;;5017063;28;20689;-82
2021/01/19 05:38:54;;;;;;;0.73;0.73;;;5.50;99.90;;;;;;5016888;28;20177;-82
2021/01/19 05:41:28;;;;;;;1.37;0.93;;;5.50;99.90;;;;;;5032334;22;20229;-83
2021/01/19 05:43:54;;;;;;;4.43;0.80;;;5.50;99.90;;;;;;5033894;28;20239;-83
2021/01/19 05:46:29;;;;;;;1.43;1.33;;;5.40;99.90;;;;;;5027226;28;20207;-82
2021/01/19 05:49:02;;;;;;;1.50;1.10;;;5.40;99.90;;;;;;5016696;28;20247;-82
2021/01/19 05:51:29;;;;;;;0.80;0.60;;;5.40;99.90;;;;;;5031582;28;20207;-82
2021/01/19 05:53:56;;;;;;;1.00;0.57;;;5.40;99.90;;;;;;5015674;28;20223;-82
2021/01/19 05:56:22;;;;;;;5.93;1.17;;;5.40;99.90;;;;;;4993339;28;20182;-82
2021/01/19 05:58:51;;;;;;;1.10;0.50;;;5.40;99.90;;;;;;4999840;28;20180;-82
2021/01/19 06:01:30;;;;;;;0.80;0.80;;;5.40;99.90;;;;;;5032408;28;20259;-82
2021/01/19 06:03:57;;;;;;;0.53;0.47;;;5.40;99.90;;;;;;5032504;28;20603;-82
2021/01/19 06:06:24;;;;;;;5.13;0.43;;;5.40;99.90;;;;;;5000148;28;20200;-82
2021/01/19 06:09:00;;;;;;;1.70;0.40;;;5.30;99.90;;;;;;5009651;28;20171;-82
2021/01/19 06:11:26;;;;;;;0.40;0.40;;;5.30;99.90;;;;;;5012163;28;20227;-81
2021/01/19 06:13:53;;;;;;;5.13;1.17;;;5.40;99.90;;;;;;5007982;28;20281;-82
2021/01/19 06:16:23;;;;;;;1.13;0.93;;;5.30;99.90;;;;;;4992605;28;20617;-83
2021/01/19 06:18:49;;;;;;;0.87;0.80;;;5.30;99.90;;;;;;4992324;28;20174;-82
2021/01/19 06:21:34;;;;;;;0.80;0.80;;;5.30;99.90;;;;;;4975980;28;20178;-82
2021/01/19 06:24:00;;;;;;;0.60;0.60;;;5.30;99.90;;;;;;4992360;28;20198;-82
2021/01/19 06:26:26;;;;;;;1.33;0.93;;;5.30;99.90;;;;;;5004766;28;20227;-82
2021/01/19 06:28:51;;;;;;;0.80;0.80;;;5.30;99.90;;;;;;4995361;28;20246;-82
2021/01/19 06:31:21;;;;;;;0.93;0.93;;;5.30;99.90;;;;;;4992099;28;20174;-82
2021/01/19 06:33:50;;;;;;;1.77;0.90;;;5.30;99.90;;;;;;4992219;28;20197;-83
2021/01/19 06:36:17;;;;;;;0.83;0.63;;;5.30;99.90;;;;;;4994069;28;20640;-82
2021/01/19 06:38:48;;;;;;;0.80;0.80;;;5.30;99.90;;;;;;5014806;28;20172;-82
2021/01/19 06:41:18;;;;;;;1.03;0.67;;;5.30;99.90;;;;;;5031798;28;20188;-84
2021/01/19 06:43:46;;;;;;;1.17;0.90;;;5.30;99.90;;;;;;5016271;28;20199;-82
2021/01/19 06:46:13;;;;;;;0.50;0.50;;;5.30;99.90;;;;;;5029234;28;20203;-83
2021/01/19 06:48:42;;;;;;;0.77;0.77;;;5.30;99.90;;;;;;5018115;28;20170;-85
2021/01/19 06:51:11;;;;;;;0.83;0.83;;;5.20;99.90;;;;;;4976004;28;20180;-82
2021/01/19 06:53:45;;;;;;;0.87;0.63;;;5.20;99.90;;;;;;4977829;28;20166;-83
2021/01/19 06:56:14;;;;;;;0.43;0.43;;;5.30;99.90;;;;;;4994353;28;20189;-84
2021/01/19 06:58:54;;;;;;;0.40;0.40;;;5.30;99.90;;;;;;4995259;28;20592;-82
2021/01/19 07:01:24;;;;;;;0.60;0.60;;;5.30;99.90;;;;;;4998840;28;20173;-83
2021/01/19 07:04:24;;;;;;;1.10;1.07;;;5.30;99.90;;;;;;5034190;28;20673;-84
2021/01/19 07:07:27;;;;;;;1.00;0.77;;;5.30;99.90;;;;;;5008539;28;20672;-84
2021/01/19 07:10:24;;;;;;;0.60;0.60;;;5.30;99.90;;;;;;5034524;28;20168;-84
2021/01/19 07:13:04;;;;;;;0.20;0.20;;;5.30;99.90;;;;;;4999304;28;20164;-84
2021/01/19 07:16:01;;;;;;;0.90;0.60;;;5.30;99.90;;;;;;4999792;28;20189;-84
2021/01/19 07:18:36;;;;;;;0.33;0.33;;;5.30;99.90;;;;;;5017008;28;20166;-85
2021/01/19 07:21:06;;;;;;;1.10;0.70;;;5.30;99.90;;;;;;5019750;28;20251;-85
2021/01/19 07:23:48;;;;;;;0.50;0.50;;;5.30;99.90;;;;;;5032934;28;20176;-83
2021/01/19 07:26:23;;;;;;;7.27;1.23;;;5.30;99.90;;;;;;5027487;28;20272;-83
2021/01/19 07:28:51;;;;;;;0.50;0.50;;;5.30;99.90;;;;;;4999498;28;20169;-84
2021/01/19 07:31:18;;;;;;;1.60;1.03;;;5.30;99.90;;;;;;5019018;28;20278;-83
2021/01/19 07:33:51;;;;;;;0.50;0.50;;;5.20;99.90;;;;;;4992111;28;20569;-85
2021/01/19 07:36:19;;;;;;;0.83;0.83;;;5.30;99.90;;;;;;4977132;28;20162;-85
2021/01/19 07:38:45;;;;;;;0.40;0.37;;;5.30;99.90;;;;;;4979388;28;20569;-84
2021/01/19 07:41:12;;;;;;;1.13;1.07;;;5.30;99.90;;;;;;4975864;28;20193;-80
2021/01/19 07:43:39;;;;;;;0.67;0.67;;;5.30;99.90;;;;;;5015162;28;20176;-81
2021/01/19 07:46:05;;;;;;;1.70;1.07;;;5.30;99.90;;;;;;5030109;28;20266;-81
2021/01/19 07:48:32;;;;;;;0.77;0.70;;;5.40;99.90;;;;;;5006295;28;20252;-80
2021/01/19 07:51:11;;;;;;;1.00;0.93;;;5.40;99.90;;;;;;5022461;28;20211;-80
2021/01/19 07:53:53;;;;;;;1.00;0.37;;;5.30;99.90;;;;;;5015994;28;20613;-84
2021/01/19 07:56:22;;;;;;;0.33;0.33;;;5.30;99.90;;;;;;4999790;28;20664;-81
2021/01/19 07:58:48;;;;;;;0.60;0.60;;;5.40;99.90;;;;;;5013041;28;20173;-82
2021/01/19 08:01:29;;;;;;;0.73;0.60;;;5.40;99.90;;;;;;4997933;28;20280;-83
2021/01/19 08:03:55;;;;;;;2.40;1.13;;;5.40;99.90;;;;;;5012360;28;20584;-82
2021/01/19 08:06:31;;;;;;;0.73;0.60;;;5.40;99.90;;;;;;4998279;28;20193;-83
2021/01/19 08:09:13;;;;;;;0.83;0.83;;;5.30;99.90;;;;;;4995475;28;20179;-81
2021/01/19 08:11:43;;;;;;;0.90;0.90;;;5.40;99.90;;;;;;5010622;28;20173;-81
2021/01/19 08:14:09;;;;;;;0.63;0.63;;;5.30;99.90;;;;;;5003546;28;20209;-81
2021/01/19 08:16:38;;;;;;;0.70;0.70;;;5.30;99.90;;;;;;5002535;28;20172;-83
2021/01/19 08:19:12;;;;;;;0.77;0.70;;;5.30;99.90;;;;;;5033383;28;20165;-83
2021/01/19 08:21:52;;;;;;;0.40;0.40;;;5.30;99.90;;;;;;5031557;28;20640;-84
2021/01/19 08:24:21;;;;;;;1.03;0.47;;;5.40;99.90;;;;;;5016425;28;20223;-82
2021/01/19 08:26:48;;;;;;;0.70;0.60;;;5.40;99.90;;;;;;5031968;28;20172;-82
2021/01/19 08:29:18;;;;;;;0.90;0.50;;;5.40;99.90;;;;;;5032674;28;20680;-79
2021/01/19 08:31:53;;;;;;;0.27;0.27;;;5.30;99.90;;;;;;5002107;28;20181;-84
2021/01/19 08:34:20;;;;;;;0.70;0.70;;;5.40;99.90;;;;;;4991796;28;20620;-81
2021/01/19 08:36:46;;;;;;;1.33;1.23;;;5.30;99.90;;;;;;4992038;28;20216;-87
2021/01/19 08:39:14;;;;;;;0.60;0.60;;;5.30;99.90;;;;;;4992117;28;20236;-87
2021/01/19 08:41:43;;;;;;;0.70;0.70;;;5.30;99.90;;;;;;5009229;28;20226;-87
2021/01/19 08:44:10;;;;;;;0.33;0.30;;;5.30;99.90;;;;;;5007277;28;20232;-84
2021/01/19 08:46:36;;;;;;;1.43;0.83;;;5.40;99.90;;;;;;4973979;28;20174;-86
2021/01/19 08:49:04;;;;;;;1.83;1.23;;;5.40;99.90;;;;;;4973881;28;20189;-87
2021/01/19 08:51:30;;;;;;;0.80;0.80;;;5.40;99.90;;;;;;4990490;28;20171;-86
2021/01/19 08:53:56;;;;;;;1.23;0.77;;;5.40;99.90;;;;;;4988517;28;20215;-86
2021/01/19 08:56:23;;;;;;;1.17;1.00;;;5.40;99.90;;;;;;4996365;28;20196;-88
2021/01/19 08:58:49;;;;;;;0.80;0.80;;;5.40;99.90;;;;;;5012568;28;20228;-86
2021/01/19 09:01:16;;;;;;;0.90;0.77;;;5.40;99.90;;;;;;5014141;28;20169;-86
2021/01/19 09:03:42;;;;;;;0.30;0.20;;;5.40;99.90;;;;;;5011088;28;20197;-82
2021/01/19 09:06:09;;;;;;;0.50;0.50;;;5.40;99.90;;;;;;5012184;28;20255;-85
2021/01/19 09:08:35;;;;;;;0.43;0.43;;;5.40;99.90;;;;;;4995572;28;20196;-85
2021/01/19 09:11:03;;;;;;;0.50;0.50;;;5.40;99.90;;;;;;5011489;28;20170;-84
2021/01/19 09:13:31;;;;;;;0.87;0.73;;;5.40;99.90;;;;;;5009901;28;20173;-86
2021/01/19 09:15:57;;;;;;;0.90;0.90;;;5.40;99.90;;;;;;5010911;28;20585;-84
2021/01/19 09:18:24;;;;;;;1.00;0.40;;;5.40;99.90;;;;;;5006120;28;20206;-84
2021/01/19 09:21:00;;;;;;;0.30;0.30;;;5.50;99.90;;;;;;5012672;28;20676;-85
2021/01/19 09:23:31;;;;;;;0.30;0.30;;;5.40;99.90;;;;;;5029848;28;20184;-82
2021/01/19 09:26:08;;;;;;;0.60;0.60;;;5.40;99.90;;;;;;5010952;28;20244;-84
2021/01/19 09:28:35;;;;;;;0.20;0.20;;;5.50;99.90;;;;;;5034597;28;20165;-87
2021/01/19 09:31:12;;;;;;;0.27;0.27;;;5.40;99.90;;;;;;5021858;28;20174;-87
2021/01/19 09:33:39;;;;;;;0.63;0.40;;;5.50;99.90;;;;;;4977540;28;20578;-80
2021/01/19 09:36:07;;;;;;;1.83;0.33;;;5.50;99.90;;;;;;4978733;28;20170;-85
2021/01/19 09:38:33;;;;;;;0.30;0.30;;;5.50;99.90;;;;;;4988975;28;20172;-83
2021/01/19 09:40:58;;;;;;;0.20;0.20;;;5.60;99.90;;;;;;5010424;28;20202;-86
2021/01/19 09:43:24;;;;;;;0.60;0.60;;;5.60;99.90;;;;;;5030779;28;20185;-83
2021/01/19 09:45:51;;;;;;;1.70;1.60;;;5.60;99.90;;;;;;4990629;28;20635;-85
2021/01/19 09:48:19;;;;;;;0.40;0.40;;;5.60;99.90;;;;;;5013546;28;20172;-84
2021/01/19 09:50:45;;;;;;;0.93;0.60;;;5.60;99.90;;;;;;4999557;28;20173;-86
2021/01/19 09:53:10;;;;;;;1.00;1.00;;;5.70;99.90;;;;;;5004549;28;20188;-85
2021/01/19 09:55:37;;;;;;;0.43;0.43;;;5.70;99.90;;;;;;5015209;28;20204;-84
2021/01/19 09:58:05;;;;;;;2.43;0.93;;;5.70;99.90;;;;;;5003670;28;20178;-86
2021/01/19 10:00:34;;;;;;;0.93;0.93;;;5.70;99.90;;;;;;5006854;28;20724;-83
2021/01/19 10:03:15;;;;;;;0.10;0.10;;;5.70;99.90;;;;;;4999493;28;20177;-86
2021/01/19 10:05:40;;;;;;;0.50;0.50;;;5.70;99.90;;;;;;5017365;28;20194;-85
2021/01/19 10:08:08;;;;;;;0.37;0.37;;;5.70;99.90;;;;;;4999405;28;20225;-83
2021/01/19 10:10:35;;;;;;;0.53;0.53;;;5.80;99.90;;;;;;4999576;28;20158;-86
2021/01/19 10:13:03;;;;;;;0.40;0.37;;;5.80;99.90;;;;;;5008748;28;20550;-86
2021/01/19 10:15:28;;;;;;;0.77;0.77;;;5.80;99.90;;;;;;4993405;28;20193;-86
2021/01/19 10:17:58;;;;;;;0.57;0.50;;;5.80;99.90;;;;;;4993869;28;20197;-85
2021/01/19 10:20:33;;;;;;;0.20;0.20;;;5.90;99.90;;;;;;4997204;28;20660;-87
2021/01/19 10:23:00;;;;;;;0.30;0.30;;;5.80;99.90;;;;;;5002220;28;20216;-85
2021/01/19 10:25:28;;;;;;;0.43;0.43;;;5.90;99.90;;;;;;5027023;28;20225;-87
2021/01/19 10:28:02;;;;;;;0.13;0.13;;;5.90;99.90;;;;;;4998753;28;20196;-86
2021/01/19 10:30:33;;;;;;;0.67;0.67;;;5.90;99.90;;;;;;4995683;28;20163;-87
2021/01/19 14:20:14;;;;;;;0.55;0.55;;;19.00;99.90;;;;;;5091403;27;20582;-40
2021/01/19 14:22:40;;;;;;;0.65;0.63;;;19.20;99.90;;;;;;5091083;28;20178;-41
2021/01/19 14:25:06;;;;;;;0.60;0.60;;;19.40;99.90;;;;;;5088046;28;20167;-41
2021/01/19 14:27:31;;;;;;;0.40;0.40;;;19.60;99.90;;;;;;5085052;28;20185;-42
2021/01/19 14:29:57;;;;;;;1.08;0.80;;;19.70;99.90;;;;;;5083869;28;20197;-42
2021/01/19 14:32:23;;;;;;;1.13;0.70;;;19.70;99.90;;;;;;5091389;28;20166;-42
2021/01/19 14:34:49;;;;;;;1.48;0.80;;;19.70;99.90;;;;;;5083961;28;20740;-41
2021/01/19 14:37:15;;;;;;;0.73;0.57;;;19.70;99.90;;;;;;5074490;28;20195;-43
2021/01/19 14:39:42;;;;;;;1.10;0.80;;;19.60;99.90;;;;;;5068994;28;20211;-42
2021/01/19 14:42:07;;;;;;;1.08;0.70;;;19.60;99.90;;;;;;5070656;28;20523;-43
2021/01/19 14:44:33;;;;;;;0.82;0.80;;;19.60;99.90;;;;;;5069823;28;20182;-42
2021/01/19 14:46:58;;;;;;;1.10;1.00;;;19.60;99.90;;;;;;5070347;28;20185;-42
2021/01/19 14:49:24;;;;;;;0.70;0.70;;;19.60;99.90;;;;;;5070347;28;20167;-42
2021/01/19 14:51:49;;;;;;;1.55;0.50;;;19.60;99.90;;;;;;5070744;28;20627;-42
2021/01/19 14:54:15;;;;;;;1.05;0.73;;;19.50;99.90;;;;;;5069705;28;20265;-42
2021/01/19 14:56:42;;;;;;;0.60;0.52;;;19.50;99.90;;;;;;5070485;28;20186;-42
2021/01/19 14:59:09;;;;;;;0.98;0.88;;;19.50;99.90;;;;;;5070434;28;20195;-42
2021/01/19 15:01:43;;;;;;;0.68;0.68;;;19.50;99.90;;;;;;5070085;28;20186;-42
2021/01/19 15:04:20;;;;;;;1.73;0.80;;;19.40;99.90;;;;;;5070043;28;20163;-41
2021/01/19 15:06:50;;;;;;;1.88;0.80;;;19.50;99.90;;;;;;5070447;28;20242;-41
2021/01/19 15:09:18;;;;;;;2.65;0.80;;;19.40;99.90;;;;;;5070131;28;20187;-42
2021/01/19 15:11:58;;;;;;;1.75;0.70;;;19.30;99.90;;;;;;5069763;28;20178;-43
2021/01/19 15:14:25;;;;;;;0.68;0.68;;;19.20;99.90;;;;;;5069269;28;20191;-42
2021/01/19 15:16:52;;;;;;;0.50;0.50;;;19.30;99.90;;;;;;5069647;28;20716;-41
2021/01/19 15:19:19;;;;;;;1.20;0.60;;;19.20;99.90;;;;;;5069491;28;20226;-41
2021/01/19 15:21:44;;;;;;;0.73;0.60;;;19.20;99.90;;;;;;5069600;28;20228;-41
2021/01/19 15:24:10;;;;;;;0.98;0.60;;;19.20;99.90;;;;;;5070156;28;20541;-41
2021/01/19 15:26:36;;;;;;;2.30;0.60;;;19.20;99.90;;;;;;5069520;28;20174;-41
2021/01/19 15:29:02;;;;;;;2.28;0.60;;;19.40;99.90;;;;;;5069455;28;20167;-41
2021/01/19 15:31:28;;;;;;;1.48;0.50;;;19.60;99.90;;;;;;5049438;28;20207;-41
2021/01/19 15:33:53;;;;;;;0.40;0.40;;;19.60;99.90;;;;;;5053405;28;20179;-41
2021/01/19 15:36:21;;;;;;;0.93;0.50;;;19.70;99.90;;;;;;5050191;28;20183;-41
2021/01/19 15:38:48;;;;;;;0.88;0.47;;;19.70;99.90;;;;;;5052860;28;20682;-41
2021/01/19 15:41:16;;;;;;;1.13;0.45;;;19.80;99.90;;;;;;5047048;28;20195;-41
2021/01/19 15:43:43;;;;;;;1.25;0.50;;;19.90;99.90;;;;;;5054987;28;20175;-41
2021/01/19 15:46:09;;;;;;;1.63;0.40;;;19.90;99.90;;;;;;5050034;28;20175;-41
2021/01/19 15:48:35;;;;;;;2.53;0.57;;;19.90;99.90;;;;;;5051899;28;20263;-41
2021/01/19 15:51:00;;;;;;;0.73;0.50;;;19.90;99.90;;;;;;5056046;28;20294;-41
2021/01/19 15:53:26;;;;;;;1.20;0.50;;;19.90;99.90;;;;;;5049308;28;20689;-41
2021/01/19 15:55:52;;;;;;;0.40;0.40;;;19.90;99.90;;;;;;5055702;28;20686;-43
2021/01/19 15:58:17;;;;;;;1.02;0.50;;;20.00;99.90;;;;;;5055877;28;20695;-41
2021/01/19 16:00:42;;;;;;;0.50;0.50;;;20.00;99.90;;;;;;5055666;28;20198;-44
2021/01/19 16:03:08;;;;;;;0.98;0.50;;;20.00;99.90;;;;;;5055628;28;20171;-41
2021/01/19 16:05:36;;;;;;;1.05;0.50;;;20.10;99.90;;;;;;5055658;28;20172;-41
2021/01/19 16:08:02;;;;;;;0.40;0.40;;;20.10;99.90;;;;;;5056886;28;20176;-43
2021/01/19 16:10:28;;;;;;;0.57;0.55;;;20.30;99.90;;;;;;5055695;28;20188;-42
2021/01/19 16:12:53;;;;;;;0.70;0.47;;;20.30;99.90;;;;;;5056281;28;20172;-41
2021/01/19 16:15:19;;;;;;;0.55;0.40;;;20.40;99.90;;;;;;5055907;28;20171;-43
2021/01/19 16:17:45;;;;;;;1.33;0.40;;;20.50;99.90;;;;;;5056362;28;20534;-43
2021/01/19 16:20:11;;;;;;;2.97;0.50;;;20.50;99.90;;;;;;5054158;28;20215;-41
2021/01/19 16:22:38;;;;;;;0.70;0.50;;;20.50;99.90;;;;;;5054398;28;20187;-41
2021/01/19 16:25:04;;;;;;;2.90;0.70;;;20.60;99.90;;;;;;5055528;28;20262;-42
2021/01/19 16:27:30;;;;;;;1.02;0.40;;;20.60;99.90;;;;;;5055640;28;20578;-42
2021/01/19 16:29:55;;;;;;;0.65;0.52;;;20.60;99.90;;;;;;5055486;28;20195;-41
2021/01/19 16:32:21;;;;;;;0.90;0.70;;;20.60;99.90;;;;;;5057809;28;20191;-41
2021/01/19 16:34:46;;;;;;;0.68;0.50;;;20.60;99.90;;;;;;5062728;28;20187;-40
2021/01/19 16:37:13;;;;;;;0.65;0.50;;;20.60;99.90;;;;;;5061571;28;20368;-40
2021/01/19 16:39:39;;;;;;;2.67;0.60;;;20.60;99.90;;;;;;5055792;28;20769;-41
2021/01/19 16:42:05;;;;;;;0.47;0.47;;;20.70;99.90;;;;;;5053865;28;20266;-41
2021/01/19 16:44:30;;;;;;;0.50;0.40;;;20.70;99.90;;;;;;5049840;28;20243;-41
2021/01/19 16:46:56;;;;;;;0.60;0.60;;;20.60;99.90;;;;;;5055371;28;20225;-41
2021/01/19 16:49:22;;;;;;;1.27;0.60;;;20.70;99.90;;;;;;5054217;28;20175;-41
2021/01/19 16:51:47;;;;;;;0.80;0.60;;;20.70;99.90;;;;;;5054633;28;20184;-42